Little Rock Air Force Base

Airport
ICAO code: 
KLRF
Summary
ICAO Region: 
NAM
Territory: 
Location: 
Little Rock, Arkansas,
Coordinates: 
Aerial View: 
34° 54' 50.094" N, 92° 8' 37.668" W
Metar
Observation
KLRF 040556Z AUTO 27003KT 10SM OVC009 17/16 A3001 RMK AO2 SLP164 60000 T01730163 10181 20172 402420051 53003 $
Station
Little Rock Air Force Base
Date/Time
2021-12-04 05:56:00
Wind direction
270°
Wind speed
03 kts
Lowest cloud amount
overcast
Temperature
17.3°C
Dew point
16.3°C
Humidity
93%
Weather condition
n/a

Description

Little Rock Air Force Base is a United States Air Force base located approximately 27 km northeast of the central business district of Little Rock, Arkansas.

Climatology

Humid “subtropical” climate (Köppen climate classification Cfa) - characterized by hot, humid summers and cool winters. Significant amounts of precipitation occur in all seasons in most areas. Winter rainfall (and sometimes snowfall) is associated with large storms that the westerlies steer from west to east. Most summer rainfall occurs during thunderstorms and occasional tropical storms (hurricanes).

Runways

Designator Length Width Surface Rops
69/249 1061 18 ASPH No/No
7/25 3658 61 CON No/No
Airport map: 
Aerial View: 

SKYbrary Partners:

Safety knowledge contributed by: